Time;durP1;ratioP1;P1;durP2;ratioP2;P2;SDS_P1;SDS_P2;PMS_P1;PMS_P2;Temp;Humidity;BMP_temperature;BMP_pressure;BME280_temperature;BME280_humidity;BME280_pressure;Samples;Min_cycle;Max_cycle;Signal;HPM_P1;HPM_P2
2024/04/20 00:00:06;;;;;;;2.10;1.40;;;;;;;4.27;64.40;98383.27;104832;1265;61130;-28
2024/04/20 00:02:33;;;;;;;3.00;1.20;;;;;;;4.34;63.72;98380.59;104854;1267;71881;-29
2024/04/20 00:05:01;;;;;;;5.70;1.60;;;;;;;4.10;63.85;98377.33;105095;1264;74426;-28
2024/04/20 00:07:29;;;;;;;5.20;2.70;;;;;;;3.87;64.31;98385.00;105056;1269;72675;-28
2024/04/20 00:09:57;;;;;;;2.70;1.50;;;;;;;3.58;64.67;98383.18;101694;1268;61179;-30
2024/04/20 00:12:24;;;;;;;1.40;1.30;;;;;;;3.36;65.22;98388.50;105231;1266;71711;-28
2024/04/20 00:14:52;;;;;;;5.90;1.80;;;;;;;3.01;66.41;98394.40;105194;1264;74389;-28
2024/04/20 00:17:19;;;;;;;2.80;1.30;;;;;;;3.13;67.30;98393.54;105100;1269;72702;-28
2024/04/20 00:19:47;;;;;;;6.30;1.30;;;;;;;3.87;65.67;98397.85;105173;1267;61157;-28
2024/04/20 00:22:15;;;;;;;7.10;1.50;;;;;;;4.08;64.83;98396.84;105121;1267;61135;-28
2024/04/20 00:24:47;;;;;;;1.50;1.10;;;;;;;4.04;64.84;98397.48;105355;1273;74025;-28
2024/04/20 00:27:14;;;;;;;1.70;1.50;;;;;;;3.84;65.25;98397.70;105228;1258;74345;-28
2024/04/20 00:29:42;;;;;;;2.60;1.60;;;;;;;3.62;65.81;98400.79;105541;1263;71469;-28
2024/04/20 00:32:10;;;;;;;5.50;1.70;;;;;;;3.46;66.10;98403.54;105419;1258;61153;-28
2024/04/20 00:34:37;;;;;;;1.90;1.10;;;;;;;3.24;67.52;98402.79;105647;1262;61048;-29
2024/04/20 00:37:05;;;;;;;9.80;1.80;;;;;;;3.90;66.18;98407.29;105414;1263;72650;-29
2024/04/20 00:39:33;;;;;;;1.70;0.90;;;;;;;4.35;64.51;98407.13;105381;1257;73247;-27
2024/04/20 00:42:02;;;;;;;2.80;1.50;;;;;;;4.43;63.91;98406.23;105463;1263;70871;-28
2024/04/20 00:44:29;;;;;;;1.10;1.00;;;;;;;4.25;63.94;98403.36;105549;1264;61173;-28
2024/04/20 00:47:03;;;;;;;2.40;1.80;;;;;;;3.82;65.17;98404.05;105471;1262;61096;-28
2024/04/20 00:49:31;;;;;;;3.70;1.60;;;;;;;3.59;65.64;98400.95;105295;1263;73845;-29
2024/04/20 00:51:58;;;;;;;1.10;1.00;;;;;;;3.39;66.19;98404.65;105214;1264;73155;-28
2024/04/20 00:54:26;;;;;;;3.40;1.50;;;;;;;3.38;66.87;98403.50;105508;1261;72742;-28
2024/04/20 00:56:54;;;;;;;2.40;1.70;;;;;;;4.19;65.41;98401.11;105257;1261;61083;-28
2024/04/20 00:59:22;;;;;;;6.70;2.10;;;;;;;4.55;63.88;98405.46;105582;1257;61134;-29
2024/04/20 01:01:50;;;;;;;3.30;1.10;;;;;;;4.48;63.63;98406.29;105433;1262;73851;-28
2024/04/20 01:04:17;;;;;;;1.20;1.10;;;;;;;4.23;64.11;98400.21;105248;1257;74434;-29
2024/04/20 01:06:45;;;;;;;3.20;1.10;;;;;;;3.93;64.92;98404.70;105165;1257;71456;-29
2024/04/20 01:09:13;;;;;;;2.70;1.60;;;;;;;3.71;65.45;98403.83;105341;1260;61045;-28
2024/04/20 01:11:40;;;;;;;3.30;2.30;;;;;;;3.48;66.11;98408.67;105237;1263;61128;-28
2024/04/20 01:14:10;;;;;;;3.60;1.30;;;;;;;3.41;66.88;98406.20;105512;1263;73840;-28
2024/04/20 01:16:38;;;;;;;8.40;1.50;;;;;;;4.18;65.37;98407.87;105516;1263;73444;-29
2024/04/20 01:19:05;;;;;;;2.40;1.50;;;;;;;4.56;63.64;98410.69;105358;1260;72722;-29
2024/04/20 01:21:33;;;;;;;2.50;1.80;;;;;;;4.47;63.34;98409.77;105300;1258;61074;-28
2024/04/20 01:24:01;;;;;;;5.20;0.80;;;;;;;4.16;63.71;98411.64;105348;1258;61049;-28
2024/04/20 01:26:28;;;;;;;0.90;0.80;;;;;;;3.79;64.85;98412.62;105528;1263;73969;-28
2024/04/20 01:28:56;;;;;;;2.90;1.20;;;;;;;3.48;65.53;98416.74;105460;1257;73144;-28
2024/04/20 01:31:23;;;;;;;3.90;1.20;;;;;;;3.16;66.67;98417.17;105538;1257;71581;-29
2024/04/20 01:33:51;;;;;;;10.20;1.90;;;;;;;3.29;67.35;98415.86;105589;1257;61086;-28
2024/04/20 01:36:18;;;;;;;1.00;0.90;;;;;;;3.99;65.61;98414.60;105471;1261;61083;-28
2024/04/20 01:38:46;;;;;;;5.20;1.20;;;;;;;4.13;64.63;98416.78;105195;1263;73805;-28
2024/04/20 01:41:14;;;;;;;3.20;1.50;;;;;;;3.98;64.57;98413.85;105111;1257;74321;-28
2024/04/20 01:43:42;;;;;;;9.80;1.50;;;;;;;3.74;64.83;98415.15;105208;1258;72692;-29
2024/04/20 01:46:09;;;;;;;5.80;1.30;;;;;;;3.45;65.74;98421.27;105266;1258;61068;-28
2024/04/20 01:48:37;;;;;;;5.40;1.90;;;;;;;3.20;66.52;98423.96;105339;1257;61083;-28
2024/04/20 01:51:05;;;;;;;0.50;0.50;;;;;;;3.00;67.10;98418.14;105605;1258;72948;-28
2024/04/20 01:53:32;;;;;;;1.80;1.20;;;;;;;3.47;66.78;98419.05;105496;1257;73978;-28
2024/04/20 01:56:04;;;;;;;3.60;1.80;;;;;;;4.03;64.87;98418.30;105376;1260;72650;-28
2024/04/20 01:58:32;;;;;;;7.40;1.90;;;;;;;4.00;64.13;98416.75;105259;1259;61206;-29
2024/04/20 02:01:00;;;;;;;1.40;1.20;;;;;;;3.79;64.79;98416.58;105150;1263;61151;-29
2024/04/20 02:03:28;;;;;;;3.30;1.50;;;;;;;3.57;65.16;98417.61;105465;1260;73846;-28
2024/04/20 02:05:55;;;;;;;2.50;1.40;;;;;;;3.29;65.65;98421.86;105643;1254;74462;-28
2024/04/20 02:08:23;;;;;;;1.70;1.20;;;;;;;3.00;65.99;98419.51;105641;1257;71660;-28
2024/04/20 02:10:50;;;;;;;4.10;1.20;;;;;;;2.72;66.90;98419.29;105623;1257;61313;-29
2024/04/20 02:13:18;;;;;;;2.20;1.00;;;;;;;2.59;68.06;98419.04;105623;1254;61011;-28
2024/04/20 02:15:45;;;;;;;6.60;1.70;;;;;;;3.40;66.46;98422.73;105648;1260;73817;-28
2024/04/20 02:18:13;;;;;;;5.50;1.60;;;;;;;3.84;64.66;98419.83;105580;1260;73293;-28
2024/04/20 02:20:41;;;;;;;4.40;1.90;;;;;;;3.75;64.37;98423.52;105553;1253;71506;-28
2024/04/20 02:23:08;;;;;;;5.30;1.80;;;;;;;3.48;65.19;98417.77;105590;1260;61131;-28
2024/04/20 02:25:36;;;;;;;5.20;2.00;;;;;;;3.27;65.94;98420.65;105649;1257;61093;-29
2024/04/20 02:28:04;;;;;;;3.00;1.90;;;;;;;3.05;66.50;98420.73;105654;1254;73838;-28
2024/04/20 02:30:31;;;;;;;32.00;2.00;;;;;;;2.82;67.16;98418.52;105696;1260;74355;-28
2024/04/20 02:32:59;;;;;;;4.00;1.70;;;;;;;2.63;67.28;98416.25;105658;1259;72702;-28
2024/04/20 02:35:27;;;;;;;1.60;0.60;;;;;;;2.42;68.03;98417.79;105814;1254;61167;-28
2024/04/20 02:37:54;;;;;;;3.40;1.10;;;;;;;3.15;67.40;98417.08;105666;1253;61043;-29
2024/04/20 02:40:22;;;;;;;10.10;1.30;;;;;;;3.79;65.56;98410.73;105708;1254;72129;-29
2024/04/20 02:42:49;;;;;;;4.50;1.30;;;;;;;3.82;64.42;98412.10;105634;1254;74459;-28
2024/04/20 02:45:18;;;;;;;3.40;1.30;;;;;;;3.61;64.52;98419.61;105497;1254;71445;-28
2024/04/20 02:47:46;;;;;;;4.70;1.60;;;;;;;3.32;65.00;98418.45;105722;1258;61170;-28
2024/04/20 02:50:14;;;;;;;7.40;1.60;;;;;;;3.04;65.58;98424.77;105806;1257;61118;-28
2024/04/20 02:52:41;;;;;;;4.20;2.00;;;;;;;2.79;66.18;98424.68;105674;1260;73895;-28
2024/04/20 02:55:09;;;;;;;4.90;2.10;;;;;;;2.59;66.80;98427.42;105619;1259;74482;-26
2024/04/20 02:57:36;;;;;;;4.80;1.80;;;;;;;2.42;67.15;98431.78;105745;1259;72686;-26
2024/04/20 03:00:05;;;;;;;2.10;1.20;;;;;;;2.18;68.04;98433.51;105859;1254;61049;-26
2024/04/20 03:02:32;;;;;;;5.50;1.60;;;;;;;2.69;68.56;98434.86;105758;1254;61068;-26
2024/04/20 03:05:00;;;;;;;4.50;2.20;;;;;;;3.47;66.84;98433.33;105690;1260;73744;-27
2024/04/20 03:07:28;;;;;;;6.50;2.50;;;;;;;3.65;65.80;98432.05;105655;1254;74474;-26
2024/04/20 03:09:55;;;;;;;3.70;2.40;;;;;;;3.53;65.64;98430.86;105541;1254;72730;-26
2024/04/20 03:12:23;;;;;;;4.70;2.40;;;;;;;3.32;65.62;98429.60;105561;1257;61189;-26
2024/04/20 03:14:51;;;;;;;3.30;1.80;;;;;;;3.06;66.13;98431.17;105690;1257;61086;-26
2024/04/20 03:17:19;;;;;;;2.20;1.50;;;;;;;2.80;66.61;98433.23;105519;1254;71643;-27
2024/04/20 03:19:47;;;;;;;2.10;1.30;;;;;;;2.66;67.08;98433.87;105574;1257;74443;-28
2024/04/20 03:22:14;;;;;;;1.50;1.30;;;;;;;2.59;67.24;98430.00;105752;1257;71391;-28
2024/04/20 03:24:42;;;;;;;5.40;1.70;;;;;;;2.49;67.44;98435.18;105649;1255;61194;-28
2024/04/20 03:27:09;;;;;;;5.50;1.80;;;;;;;3.21;67.31;98437.42;105692;1256;61321;-28
2024/04/20 03:29:37;;;;;;;8.00;1.80;;;;;;;4.21;65.26;98442.20;105720;1260;73841;-28
2024/04/20 03:32:05;;;;;;;5.90;1.70;;;;;;;4.60;63.80;98441.09;105635;1254;74488;-27
2024/04/20 03:34:33;;;;;;;1.60;1.30;;;;;;;4.68;63.26;98446.41;105694;1254;72648;-26
2024/04/20 03:37:01;;;;;;;4.00;1.80;;;;;;;4.61;63.34;98444.45;105493;1254;61192;-26
2024/04/20 03:39:28;;;;;;;4.60;2.00;;;;;;;4.53;63.28;98443.98;105800;1254;61026;-26
2024/04/20 03:41:56;;;;;;;2.30;1.70;;;;;;;4.49;63.53;98447.46;105593;1259;73775;-26
2024/04/20 03:44:24;;;;;;;2.90;1.80;;;;;;;4.46;63.41;98448.48;105570;1259;74937;-26
2024/04/20 03:46:53;;;;;;;3.50;1.80;;;;;;;4.40;64.03;98449.45;105631;1260;72673;-27
2024/04/20 03:49:21;;;;;;;2.20;1.40;;;;;;;5.13;63.79;98450.77;105619;1259;61177;-27
2024/04/20 03:51:49;;;;;;;2.70;2.00;;;;;;;5.99;61.46;98453.08;105530;1254;61057;-27
2024/04/20 03:54:16;;;;;;;7.90;2.80;;;;;;;6.28;60.23;98450.48;105565;1254;72655;-27
2024/04/20 03:56:44;;;;;;;8.50;6.00;;;;;;;6.36;59.44;98451.64;105658;1254;74433;-27
2024/04/20 03:59:11;;;;;;;9.00;4.10;;;;;;;6.44;59.37;98457.48;105732;1257;72393;-27
2024/04/20 04:01:39;;;;;;;6.90;4.00;;;;;;;6.45;59.20;98456.12;105723;1258;61279;-27
2024/04/20 04:04:07;;;;;;;6.10;3.40;;;;;;;6.46;59.42;98463.55;105701;1260;61331;-27
2024/04/20 04:06:35;;;;;;;5.50;2.80;;;;;;;6.39;59.49;98463.68;105751;1254;74618;-27
2024/04/20 04:09:02;;;;;;;3.30;2.30;;;;;;;6.28;59.43;98466.04;105880;1254;73237;-27
2024/04/20 04:11:30;;;;;;;3.00;1.70;;;;;;;6.28;60.56;98468.60;105663;1256;72804;-27
2024/04/20 04:13:57;;;;;;;2.60;1.90;;;;;;;7.30;58.57;98470.30;105616;1254;61269;-27
2024/04/20 04:16:25;;;;;;;4.30;2.10;;;;;;;7.90;57.37;98473.29;105581;1257;61536;-27
2024/04/20 04:18:52;;;;;;;5.20;3.20;;;;;;;7.99;56.51;98473.83;105639;1254;73709;-27
2024/04/20 04:21:20;;;;;;;5.00;3.20;;;;;;;7.91;56.00;98476.73;105571;1260;74481;-27
2024/04/20 04:23:48;;;;;;;7.00;3.00;;;;;;;7.90;56.52;98482.11;105588;1257;72760;-27
2024/04/20 04:26:15;;;;;;;4.50;2.50;;;;;;;7.80;56.40;98480.48;105649;1253;61321;-28
2024/04/20 04:28:43;;;;;;;5.50;2.70;;;;;;;7.69;56.75;98481.33;105666;1259;61292;-27
2024/04/20 04:31:10;;;;;;;3.60;2.50;;;;;;;7.67;56.91;98480.48;105580;1259;73399;-27
2024/04/20 04:33:38;;;;;;;3.40;2.50;;;;;;;7.62;57.00;98482.58;105538;1254;72071;-27
2024/04/20 04:36:06;;;;;;;3.80;2.20;;;;;;;7.55;57.38;98480.38;105391;1253;72698;-27
2024/04/20 04:38:33;;;;;;;3.70;2.60;;;;;;;7.52;57.96;98483.84;105398;1257;61342;-27
2024/04/20 04:41:01;;;;;;;1.80;1.10;;;;;;;8.32;57.34;98486.06;105374;1259;61717;-27
2024/04/20 04:43:28;;;;;;;2.30;1.80;;;;;;;8.86;55.80;98483.55;105547;1253;74573;-27
2024/04/20 04:45:56;;;;;;;2.70;2.20;;;;;;;8.98;55.18;98486.39;105504;1254;74446;-27
2024/04/20 04:48:26;;;;;;;3.50;1.80;;;;;;;9.03;54.70;98489.93;105669;1254;72736;-27
2024/04/20 04:50:54;;;;;;;3.40;2.00;;;;;;;8.89;54.65;98493.86;105656;1257;61217;-27
2024/04/20 04:53:22;;;;;;;4.90;2.60;;;;;;;8.79;55.25;98501.50;109534;1253;58951;-27
2024/04/20 04:55:49;;;;;;;3.10;2.10;;;;;;;8.79;55.09;98500.30;109437;1253;73761;-26
2024/04/20 04:58:17;;;;;;;4.30;2.00;;;;;;;8.62;55.22;98501.81;109453;1253;74449;-26
2024/04/20 05:00:46;;;;;;;4.90;1.80;;;;;;;8.41;55.96;98499.52;109412;1254;71444;-26
2024/04/20 05:03:13;;;;;;;1.70;1.00;;;;;;;8.40;56.06;98502.34;109383;1256;59317;-26
2024/04/20 05:05:48;;;;;;;3.20;2.30;;;;;;;8.14;56.51;98509.42;109451;1254;60098;-27
2024/04/20 05:08:15;;;;;;;3.00;2.00;;;;;;;8.22;56.88;98510.38;109325;1253;74729;-28
2024/04/20 05:10:43;;;;;;;4.70;1.80;;;;;;;8.17;57.01;98512.48;109390;1253;73561;-26
2024/04/20 05:13:10;;;;;;;2.80;2.20;;;;;;;8.22;57.31;98510.86;109436;1254;71405;-26
2024/04/20 05:15:38;;;;;;;3.00;1.90;;;;;;;8.38;57.87;98508.39;109441;1253;59220;-26
2024/04/20 05:18:06;;;;;;;3.30;2.30;;;;;;;8.30;57.55;98510.78;109393;1256;60207;-26
2024/04/20 05:20:35;;;;;;;1.50;1.30;;;;;;;8.37;57.71;98513.98;109472;1253;73699;-26
2024/04/20 05:23:03;;;;;;;2.10;1.70;;;;;;;8.19;57.05;98519.36;109483;1254;74323;-26
2024/04/20 05:25:30;;;;;;;1.20;1.10;;;;;;;8.30;58.00;98524.91;109460;1253;71801;-27
2024/04/20 05:27:58;;;;;;;2.60;1.70;;;;;;;8.42;57.51;98522.95;109366;1252;58919;-26
2024/04/20 05:30:26;;;;;;;4.80;2.20;;;;;;;8.50;57.64;98521.95;109472;1252;58977;-26
2024/04/20 05:32:55;;;;;;;3.30;1.70;;;;;;;8.61;57.75;98521.43;109425;1254;74672;-27
2024/04/20 05:35:23;;;;;;;7.40;2.20;;;;;;;8.76;57.77;98525.25;109225;1253;74574;-26
2024/04/20 05:37:50;;;;;;;2.10;1.70;;;;;;;8.78;57.25;98526.45;109398;1253;72729;-27
2024/04/20 05:40:17;;;;;;;4.70;1.90;;;;;;;8.65;57.41;98522.36;109379;1254;59340;-26
2024/04/20 05:42:45;;;;;;;2.10;1.70;;;;;;;8.83;58.29;98523.16;109623;1253;59998;-26
2024/04/20 05:45:16;;;;;;;3.10;1.80;;;;;;;9.15;57.63;98526.19;109411;1253;74719;-26
2024/04/20 05:47:43;;;;;;;3.10;1.40;;;;;;;9.49;57.69;98528.17;109490;1252;74424;-26
2024/04/20 05:50:11;;;;;;;4.70;1.80;;;;;;;9.79;56.67;98530.14;109446;1253;72624;-26
2024/04/20 05:52:38;;;;;;;3.60;1.90;;;;;;;9.91;55.91;98529.61;109429;1253;59275;-27
2024/04/20 05:55:06;;;;;;;3.10;1.60;;;;;;;9.96;55.69;98531.84;109440;1253;59152;-26
2024/04/20 05:57:33;;;;;;;1.90;1.20;;;;;;;9.82;55.46;98531.07;109456;1253;73418;-26
2024/04/20 06:00:00;;;;;;;2.30;1.20;;;;;;;9.92;55.04;98532.46;109459;1253;74621;-27
2024/04/20 06:02:38;;;;;;;8.10;1.70;;;;;;;9.90;55.29;98539.11;109472;1252;71372;-26
2024/04/20 06:05:05;;;;;;;2.00;1.40;;;;;;;10.26;55.15;98536.02;109432;1254;60080;-26
2024/04/20 06:07:33;;;;;;;2.00;1.10;;;;;;;10.44;54.49;98538.77;109406;1253;58890;-26
2024/04/20 06:10:00;;;;;;;3.30;1.70;;;;;;;10.36;53.53;98536.16;109403;1254;74724;-26
2024/04/20 06:12:28;;;;;;;1.40;0.90;;;;;;;10.50;53.67;98536.73;109365;1252;73208;-27
2024/04/20 06:14:55;;;;;;;1.40;1.30;;;;;;;10.64;53.52;98538.94;109349;1254;71393;-26
2024/04/20 06:17:22;;;;;;;2.80;1.40;;;;;;;10.59;52.78;98538.87;109277;1254;58889;-26
2024/04/20 06:19:50;;;;;;;2.70;1.90;;;;;;;10.67;53.26;98536.71;109448;1253;60104;-27
2024/04/20 06:22:17;;;;;;;2.60;1.60;;;;;;;10.88;53.46;98536.05;109415;1254;74663;-27
2024/04/20 06:24:47;;;;;;;2.00;1.40;;;;;;;11.04;52.08;98536.58;109464;1253;74510;-27
2024/04/20 06:27:14;;;;;;;1.60;1.30;;;;;;;11.16;52.05;98533.89;109438;1253;72756;-27
2024/04/20 06:29:41;;;;;;;6.70;1.60;;;;;;;11.37;51.81;98533.88;109445;1254;60099;-27
2024/04/20 06:32:09;;;;;;;3.70;1.10;;;;;;;11.50;51.72;98537.33;109458;1254;60133;-27
2024/04/20 06:34:36;;;;;;;2.70;1.80;;;;;;;11.68;51.34;98540.77;109396;1254;72563;-27
2024/04/20 06:37:06;;;;;;;3.50;1.10;;;;;;;11.80;50.50;98542.96;109444;1253;74389;-27
2024/04/20 06:39:33;;;;;;;2.70;1.40;;;;;;;11.71;50.01;98543.77;109401;1254;72680;-27
2024/04/20 06:42:01;;;;;;;7.20;1.90;;;;;;;11.87;50.27;98538.84;109323;1254;58956;-27
2024/04/20 06:44:28;;;;;;;3.30;1.30;;;;;;;11.98;49.87;98544.73;109352;1253;59114;-27
2024/04/20 06:46:56;;;;;;;1.90;1.10;;;;;;;12.15;48.94;98546.65;109321;1253;74677;-27
2024/04/20 06:49:24;;;;;;;4.80;1.40;;;;;;;12.02;47.97;98545.07;109467;1253;74411;-27
2024/04/20 06:51:51;;;;;;;1.90;1.20;;;;;;;11.77;47.96;98548.98;109290;1253;72769;-27
2024/04/20 06:54:19;;;;;;;2.20;1.10;;;;;;;11.66;48.46;98550.69;109408;1254;60080;-27
2024/04/20 06:56:46;;;;;;;28.60;2.10;;;;;;;12.02;48.55;98555.19;109317;1253;60003;-27
2024/04/20 06:59:13;;;;;;;2.30;1.40;;;;;;;12.40;48.45;98557.47;109362;1253;74717;-27
2024/04/20 07:01:41;;;;;;;1.40;1.20;;;;;;;12.58;47.03;98558.36;109373;1253;73290;-27
2024/04/20 07:04:08;;;;;;;1.20;1.00;;;;;;;12.63;47.24;98560.12;109309;1253;71462;-27
2024/04/20 07:06:36;;;;;;;4.10;1.50;;;;;;;12.80;47.40;98563.33;109319;1254;58937;-27
2024/04/20 07:09:03;;;;;;;2.00;1.40;;;;;;;12.85;46.48;98569.46;109381;1253;61427;-27
2024/04/20 07:11:31;;;;;;;1.70;1.40;;;;;;;12.89;47.31;98572.90;109360;1253;73421;-27
2024/04/20 07:13:59;;;;;;;2.20;1.40;;;;;;;13.11;46.35;98566.73;109424;1254;73220;-26
2024/04/20 07:16:26;;;;;;;1.80;1.30;;;;;;;13.28;45.94;98571.53;109264;1254;72999;-26
2024/04/20 07:18:53;;;;;;;1.80;1.40;;;;;;;13.21;45.17;98565.03;109213;1256;58942;-26
2024/04/20 07:21:21;;;;;;;1.20;1.10;;;;;;;13.28;44.78;98567.49;109303;1253;60243;-27
2024/04/20 07:23:49;;;;;;;9.70;1.10;;;;;;;13.30;44.70;98567.16;109409;1254;74700;-27
2024/04/20 07:26:16;;;;;;;2.60;1.50;;;;;;;13.04;43.83;98570.40;109289;1253;74441;-27
2024/04/20 07:28:43;;;;;;;1.90;1.10;;;;;;;13.06;44.25;98576.48;109415;1254;72768;-27
2024/04/20 07:31:11;;;;;;;1.70;1.30;;;;;;;13.11;44.00;98575.98;109335;1254;60158;-27
2024/04/20 07:33:38;;;;;;;1.60;1.30;;;;;;;13.45;44.46;98576.98;109259;1254;60095;-26
2024/04/20 07:36:06;;;;;;;1.70;1.10;;;;;;;13.44;43.19;98572.91;109429;1254;75131;-27
2024/04/20 07:38:34;;;;;;;2.10;1.30;;;;;;;13.54;43.38;98574.27;109255;1254;73732;-27
2024/04/20 07:41:01;;;;;;;0.90;0.80;;;;;;;13.92;43.16;98578.41;109226;1254;71419;-27
2024/04/20 07:43:32;;;;;;;1.80;1.30;;;;;;;13.54;41.11;98576.61;109356;1254;60306;-27
2024/04/20 07:45:59;;;;;;;1.20;0.90;;;;;;;13.17;41.40;98570.00;109410;1254;60415;-27
2024/04/20 07:48:27;;;;;;;0.80;0.80;;;;;;;13.07;41.35;98577.64;109253;1254;74770;-27
2024/04/20 07:50:54;;;;;;;2.20;1.10;;;;;;;12.74;42.03;98588.14;109380;1254;74719;-27
2024/04/20 07:53:22;;;;;;;2.90;1.10;;;;;;;13.01;41.22;98585.11;109394;1254;73027;-27
2024/04/20 07:55:49;;;;;;;4.30;1.40;;;;;;;13.32;42.62;98588.73;109391;1254;59020;-26
2024/04/20 07:58:17;;;;;;;1.30;1.00;;;;;;;13.81;42.03;98590.10;109234;1254;58959;-26
2024/04/20 08:00:44;;;;;;;1.10;0.90;;;;;;;14.16;40.27;98591.08;109408;1253;73469;-27
2024/04/20 08:03:12;;;;;;;1.00;0.90;;;;;;;14.03;39.32;98587.38;109239;1254;73187;-27
2024/04/20 08:05:39;;;;;;;1.10;1.00;;;;;;;14.26;40.29;98585.64;109221;1254;72749;-27
2024/04/20 08:08:07;;;;;;;1.20;0.90;;;;;;;13.91;40.79;98591.02;109222;1256;59243;-27
2024/04/20 08:10:34;;;;;;;1.00;0.90;;;;;;;13.93;41.60;98591.55;109395;1254;60142;-27
2024/04/20 08:13:01;;;;;;;1.30;1.10;;;;;;;14.52;41.37;98593.64;109201;1254;73465;-27
2024/04/20 08:15:29;;;;;;;1.10;0.90;;;;;;;14.52;40.24;98597.38;109257;1254;74544;-27
2024/04/20 08:17:56;;;;;;;0.90;0.80;;;;;;;14.76;40.54;98592.39;109341;1254;72789;-27
2024/04/20 08:20:24;;;;;;;1.70;1.10;;;;;;;15.05;40.61;98587.59;109185;1254;60179;-27
2024/04/20 08:22:51;;;;;;;1.20;1.10;;;;;;;15.25;40.72;98590.81;109207;1254;59087;-27
2024/04/20 08:25:18;;;;;;;1.20;0.90;;;;;;;14.81;40.06;98584.36;109182;1254;74696;-27
2024/04/20 08:27:46;;;;;;;1.00;0.90;;;;;;;14.73;37.65;98578.00;109369;1254;73275;-27
2024/04/20 08:30:13;;;;;;;1.40;1.20;;;;;;;14.61;39.70;98579.38;109368;1254;72994;-27
2024/04/20 08:32:40;;;;;;;1.60;1.00;;;;;;;14.77;39.69;98580.73;109161;1256;60138;-27
2024/04/20 08:35:08;;;;;;;3.00;1.40;;;;;;;14.61;39.22;98582.11;109294;1254;58973;-27
2024/04/20 08:37:37;;;;;;;1.50;1.10;;;;;;;14.58;39.61;98580.95;109347;1254;73436;-27
2024/04/20 08:40:05;;;;;;;1.50;1.20;;;;;;;14.63;40.45;98576.34;109332;1254;76500;-27
2024/04/20 08:42:33;;;;;;;1.80;1.10;;;;;;;14.45;39.57;98584.92;109190;1259;73037;-27
2024/04/20 08:45:03;;;;;;;1.50;1.10;;;;;;;14.58;41.43;98590.96;109079;1254;59313;-27
2024/04/20 08:47:31;;;;;;;2.60;1.30;;;;;;;14.70;42.16;98589.57;109175;1254;60174;-27
2024/04/20 08:49:58;;;;;;;1.10;1.00;;;;;;;14.76;40.77;98580.04;109143;1254;73378;-27
2024/04/20 08:52:26;;;;;;;1.70;1.30;;;;;;;14.58;39.56;98587.06;109078;1254;74500;-27
2024/04/20 08:54:56;;;;;;;1.60;1.30;;;;;;;14.71;41.05;98581.73;109169;1254;71673;-27
2024/04/20 08:57:23;;;;;;;1.20;1.10;;;;;;;14.22;40.80;98578.39;109329;1254;58955;-27
2024/04/20 08:59:51;;;;;;;1.60;1.10;;;;;;;14.78;38.42;98568.39;109224;1254;59045;-27
2024/04/20 09:02:23;;;;;;;2.60;1.60;;;;;;;15.09;39.24;98561.59;109359;1254;74124;-27
2024/04/20 09:04:50;;;;;;;1.50;1.20;;;;;;;15.41;38.37;98562.23;109145;1254;74632;-27
2024/04/20 09:07:18;;;;;;;1.50;1.10;;;;;;;15.16;38.14;98563.13;109179;1254;71482;-27
2024/04/20 09:09:45;;;;;;;1.20;1.10;;;;;;;15.18;38.80;98557.15;109113;1255;60267;-27
2024/04/20 09:12:13;;;;;;;2.20;1.40;;;;;;;15.08;38.20;98552.25;109143;1256;60123;-27
2024/04/20 09:14:40;;;;;;;1.70;1.20;;;;;;;15.22;38.63;98555.97;109158;1256;76787;-27
2024/04/20 09:17:08;;;;;;;2.30;1.10;;;;;;;15.03;39.48;98556.09;109170;1254;73678;-27
2024/04/20 09:19:35;;;;;;;1.10;0.90;;;;;;;15.19;39.90;98556.40;109171;1256;72055;-27
2024/04/20 09:22:07;;;;;;;1.40;1.30;;;;;;;14.96;39.55;98554.93;109283;1256;59216;-28
2024/04/20 09:24:38;;;;;;;1.60;1.10;;;;;;;15.09;38.75;98551.85;109126;1259;58938;-27
2024/04/20 09:27:09;;;;;;;2.80;1.40;;;;;;;15.52;36.25;98546.87;109140;1255;73508;-27
2024/04/20 09:29:39;;;;;;;0.80;0.70;;;;;;;16.12;37.25;98537.08;109078;1257;74493;-27
2024/04/20 09:32:07;;;;;;;1.70;1.40;;;;;;;15.80;35.93;98543.58;109133;1256;72803;-27
2024/04/20 09:34:38;;;;;;;0.80;0.80;;;;;;;14.94;36.92;98546.44;109118;1257;58938;-27
2024/04/20 09:37:05;;;;;;;3.10;1.20;;;;;;;15.14;39.06;98547.33;109181;1257;60216;-27
2024/04/20 09:39:33;;;;;;;2.20;1.30;;;;;;;15.22;39.13;98545.94;109140;1256;75675;-27
2024/04/20 09:42:01;;;;;;;1.20;1.10;;;;;;;15.13;38.83;98545.83;109288;1256;74594;-27
2024/04/20 09:44:30;;;;;;;1.50;1.10;;;;;;;15.26;39.19;98542.84;109273;1259;71858;-28
2024/04/20 09:46:57;;;;;;;1.40;0.90;;;;;;;15.38;39.41;98540.52;109262;1256;58885;-28
2024/04/20 09:49:29;;;;;;;1.40;1.00;;;;;;;15.14;38.98;98536.45;109181;1255;60144;-27
2024/04/20 09:52:09;;;;;;;1.10;0.90;;;;;;;14.99;39.08;98536.64;109114;1255;75055;-27
2024/04/20 09:54:45;;;;;;;2.00;1.30;;;;;;;15.88;39.75;98531.33;109172;1255;73611;-27
2024/04/20 09:57:13;;;;;;;1.40;0.80;;;;;;;16.71;38.48;98536.22;109058;1254;72772;-27
2024/04/20 09:59:46;;;;;;;3.60;0.80;;;;;;;17.13;36.49;98535.66;109146;1256;60879;-27
2024/04/20 10:02:17;;;;;;;2.00;1.10;;;;;;;17.09;35.36;98538.48;109142;1256;60155;-27
2024/04/20 10:04:44;;;;;;;3.30;1.00;;;;;;;16.09;35.43;98540.56;109126;1257;73626;-27
2024/04/20 10:07:12;;;;;;;4.40;0.90;;;;;;;16.39;36.38;98544.42;109100;1255;74456;-27
2024/04/20 10:09:41;;;;;;;1.10;1.00;;;;;;;16.37;35.98;98544.46;109007;1257;72814;-27
2024/04/20 10:12:08;;;;;;;3.70;2.10;;;;;;;16.19;37.23;98543.27;109049;1257;58984;-27
2024/04/20 10:14:36;;;;;;;3.40;2.40;;;;;;;16.56;37.55;98540.84;108994;1257;60386;-27
2024/04/20 10:17:03;;;;;;;3.60;1.90;;;;;;;17.37;36.71;98545.08;109234;1257;74799;-27
2024/04/20 10:19:39;;;;;;;1.20;1.00;;;;;;;17.16;34.61;98544.59;109215;1257;73218;-27
2024/04/20 10:22:06;;;;;;;3.50;1.10;;;;;;;16.85;36.18;98540.73;108946;1257;72776;-27
2024/04/20 10:24:34;;;;;;;0.80;0.70;;;;;;;16.20;36.93;98543.32;109094;1256;60156;-27
2024/04/20 10:27:01;;;;;;;1.40;0.90;;;;;;;15.92;37.15;98544.91;109093;1257;60068;-27
2024/04/20 10:29:31;;;;;;;1.70;1.30;;;;;;;16.22;37.01;98546.79;109111;1257;73457;-27
2024/04/20 10:31:59;;;;;;;2.50;0.70;;;;;;;16.79;36.56;98543.32;109203;1257;73256;-27
2024/04/20 10:34:26;;;;;;;1.80;1.10;;;;;;;17.32;36.33;98542.17;109195;1256;72682;-27
2024/04/20 10:36:58;;;;;;;1.10;0.80;;;;;;;17.89;35.48;98545.33;109214;1256;60114;-27
2024/04/20 10:39:26;;;;;;;1.40;1.00;;;;;;;17.62;34.61;98549.40;109101;1257;59080;-27
2024/04/20 10:42:10;;;;;;;1.30;0.70;;;;;;;17.29;34.10;98544.44;109116;1257;73497;-27
2024/04/20 10:44:38;;;;;;;1.60;1.10;;;;;;;17.00;36.23;98542.55;109112;1257;74421;-27
2024/04/20 10:47:05;;;;;;;2.40;0.90;;;;;;;17.06;35.53;98540.59;109068;1257;72763;-27
2024/04/20 10:49:33;;;;;;;1.50;0.80;;;;;;;16.62;36.11;98535.86;108917;1262;60633;-28
2024/04/20 10:52:01;;;;;;;1.20;0.80;;;;;;;15.83;36.75;98533.95;109222;1257;60146;-27
2024/04/20 10:54:28;;;;;;;1.60;1.00;;;;;;;15.54;35.62;98530.86;109091;1257;73557;-27
2024/04/20 10:56:56;;;;;;;2.40;1.10;;;;;;;16.37;36.69;98534.23;109083;1257;76088;-27
2024/04/20 10:59:23;;;;;;;3.40;0.80;;;;;;;16.97;35.75;98530.74;108925;1257;71265;-26
2024/04/20 11:01:51;;;;;;;1.50;1.10;;;;;;;17.25;34.68;98538.92;109053;1257;59050;-27
2024/04/20 11:04:22;;;;;;;1.70;1.10;;;;;;;16.80;34.06;98544.82;109119;1257;59428;-27
2024/04/20 11:06:54;;;;;;;1.10;1.00;;;;;;;16.92;35.27;98549.03;109123;1257;73759;-27
2024/04/20 11:09:24;;;;;;;1.80;1.00;;;;;;;16.49;35.39;98544.54;109063;1257;73266;-27
2024/04/20 11:12:00;;;;;;;1.70;1.00;;;;;;;16.83;36.20;98538.39;108931;1257;72788;-28
2024/04/20 11:14:34;;;;;;;1.50;1.20;;;;;;;17.15;35.24;98539.44;108953;1257;59266;-27
2024/04/20 11:17:04;;;;;;;1.90;1.50;;;;;;;17.21;36.14;98540.68;109066;1257;58861;-27
2024/04/20 11:19:36;;;;;;;2.30;1.40;;;;;;;17.74;35.30;98538.86;109019;1257;73436;-27
2024/04/20 11:22:07;;;;;;;1.50;1.00;;;;;;;17.73;33.71;98539.59;108990;1257;74253;-27
2024/04/20 11:24:37;;;;;;;1.30;0.90;;;;;;;17.28;33.48;98538.31;109075;1257;72971;-27
2024/04/20 11:27:10;;;;;;;1.50;1.10;;;;;;;16.82;34.14;98541.73;108996;1257;60248;-28
2024/04/20 11:29:39;;;;;;;1.30;0.80;;;;;;;16.19;34.75;98539.22;109024;1257;59016;-27
2024/04/20 11:32:20;;;;;;;4.00;2.40;;;;;;;16.11;35.17;98534.88;109087;1257;73443;-27